createdAt,value
2023-03-19T00:02:25.120Z,80.67
2023-03-19T00:04:53.083Z,81.66
2023-03-19T00:07:20.969Z,82.25
2023-03-19T00:09:50.307Z,81.99
2023-03-19T00:12:18.207Z,82.22
2023-03-19T00:14:46.053Z,82.07
2023-03-19T00:17:14.069Z,82.10
2023-03-19T00:19:42.094Z,81.43
2023-03-19T00:22:09.953Z,81.66
2023-03-19T00:24:37.786Z,80.82
2023-03-19T00:27:07.305Z,81.03
2023-03-19T00:29:35.395Z,81.39
2023-03-19T00:32:03.624Z,80.80
2023-03-19T00:34:31.675Z,80.45
2023-03-19T00:36:59.568Z,81.29
2023-03-19T00:39:27.400Z,81.35
2023-03-19T00:41:55.462Z,81.46
2023-03-19T00:44:24.714Z,81.16
2023-03-19T00:46:52.831Z,81.96
2023-03-19T00:49:20.960Z,81.66
2023-03-19T00:51:48.782Z,81.75
2023-03-19T00:54:16.902Z,81.75
2023-03-19T00:56:44.852Z,82.49
2023-03-19T00:59:12.649Z,83.22
2023-03-19T01:01:42.096Z,82.80
2023-03-19T01:04:11.421Z,83.42
2023-03-19T01:06:39.629Z,82.96
2023-03-19T01:09:07.474Z,82.95
2023-03-19T01:11:35.425Z,82.38
2023-03-19T01:14:03.440Z,82.46
2023-03-19T01:16:31.518Z,82.21
2023-03-19T01:19:00.941Z,82.39
2023-03-19T01:21:30.978Z,82.18
2023-03-19T01:23:58.836Z,81.85
2023-03-19T01:26:27.417Z,81.80
2023-03-19T01:28:55.851Z,82.12
2023-03-19T01:31:23.690Z,81.93
2023-03-19T01:33:51.827Z,81.58
2023-03-19T01:36:21.052Z,82.06
2023-03-19T01:38:48.932Z,82.79
2023-03-19T01:41:17.307Z,83.67
2023-03-19T01:43:45.169Z,83.86
2023-03-19T01:46:28.739Z,84.05
2023-03-19T01:48:59.936Z,84.95
2023-03-19T01:51:33.620Z,85.13
2023-03-19T01:54:05.080Z,85.10
2023-03-19T01:56:35.822Z,84.37
2023-03-19T01:59:08.488Z,84.70
2023-03-19T02:01:40.900Z,84.53
2023-03-19T02:04:09.177Z,84.74
2023-03-19T02:06:39.194Z,85.03
2023-03-19T02:09:07.462Z,84.74
2023-03-19T02:11:35.557Z,85.30
2023-03-19T02:14:03.399Z,85.31
2023-03-19T02:16:31.951Z,84.57
2023-03-19T02:19:00.864Z,84.97
2023-03-19T02:21:28.776Z,84.93
2023-03-19T02:24:04.381Z,85.07
2023-03-19T02:26:33.834Z,85.91
2023-03-19T02:29:01.686Z,86.15
2023-03-19T02:31:30.260Z,85.57
2023-03-19T02:34:00.619Z,85.23
2023-03-19T02:36:32.745Z,85.46
2023-03-19T02:39:03.709Z,85.85
2023-03-19T02:41:35.699Z,86.48
2023-03-19T02:44:05.350Z,86.93
2023-03-19T02:46:33.281Z,87.24
2023-03-19T02:49:01.379Z,87.21
2023-03-19T02:51:29.267Z,86.93
2023-03-19T02:53:57.237Z,87.22
2023-03-19T02:56:25.160Z,87.42
2023-03-19T02:58:54.492Z,87.70
2023-03-19T03:01:22.403Z,87.27
2023-03-19T03:03:50.323Z,87.55
2023-03-19T03:06:18.174Z,87.67
2023-03-19T03:08:46.221Z,87.21
2023-03-19T03:11:14.194Z,87.48
2023-03-19T03:13:42.141Z,87.43
2023-03-19T03:16:11.435Z,87.40
2023-03-19T03:18:39.377Z,87.04
2023-03-19T03:21:07.339Z,87.33
2023-03-19T03:23:35.172Z,88.62
2023-03-19T03:26:03.521Z,89.39
2023-03-19T03:28:31.413Z,90.28
2023-03-19T03:31:03.852Z,91.18
2023-03-19T03:33:33.175Z,91.99
2023-03-19T03:36:01.266Z,92.46
2023-03-19T03:38:29.404Z,92.83
2023-03-19T03:40:57.249Z,92.88
2023-03-19T03:43:25.971Z,92.90
2023-03-19T03:45:54.671Z,93.13
2023-03-19T03:48:23.044Z,92.49
2023-03-19T03:50:52.785Z,92.19
2023-03-19T03:53:21.021Z,92.35
2023-03-19T03:55:48.872Z,92.51
2023-03-19T03:58:16.961Z,91.60
2023-03-19T04:00:44.999Z,91.64
2023-03-19T04:03:13.001Z,91.93
2023-03-19T04:05:41.073Z,92.30
2023-03-19T04:08:10.315Z,92.99
2023-03-19T04:10:42.360Z,92.84
2023-03-19T04:13:10.788Z,92.45
2023-03-19T04:15:38.622Z,92.28
2023-03-19T04:18:06.530Z,92.19
2023-03-19T04:20:34.842Z,92.12
2023-03-19T04:23:03.415Z,91.93
2023-03-19T04:25:32.615Z,92.31
2023-03-19T04:28:00.638Z,92.01
2023-03-19T04:30:29.084Z,91.81
2023-03-19T04:32:57.044Z,92.23
2023-03-19T04:35:25.174Z,92.79
2023-03-19T04:37:53.055Z,92.84
2023-03-19T04:40:20.969Z,92.79
2023-03-19T04:42:50.358Z,92.29
2023-03-19T04:45:20.961Z,92.45
2023-03-19T04:47:48.830Z,92.52
2023-03-19T04:50:16.909Z,92.23
2023-03-19T04:52:44.796Z,92.31
2023-03-19T04:55:13.223Z,92.33
2023-03-19T04:57:42.381Z,92.87
2023-03-19T05:00:14.561Z,92.22
2023-03-19T05:02:42.907Z,91.95
2023-03-19T05:05:12.518Z,92.16
2023-03-19T05:07:41.432Z,91.36
2023-03-19T05:10:10.627Z,90.51
2023-03-19T05:12:38.691Z,90.53
2023-03-19T05:15:07.481Z,90.36
2023-03-19T05:17:37.454Z,90.30
2023-03-19T05:20:06.247Z,90.42
2023-03-19T05:22:34.357Z,90.35
2023-03-19T05:25:02.719Z,90.14
2023-03-19T05:27:30.774Z,90.44
2023-03-19T05:29:58.968Z,89.96
2023-03-19T05:32:27.125Z,89.46
2023-03-19T05:34:56.359Z,89.42
2023-03-19T05:37:24.196Z,89.70
2023-03-19T05:39:52.076Z,89.45
2023-03-19T05:42:19.898Z,89.99
2023-03-19T05:44:48.314Z,89.47
2023-03-19T05:47:16.420Z,89.82
2023-03-19T05:49:44.288Z,89.07
2023-03-19T05:52:13.786Z,89.55
2023-03-19T05:54:42.280Z,89.45
2023-03-19T05:57:10.203Z,89.82
2023-03-19T05:59:38.013Z,89.44
2023-03-19T06:02:06.278Z,89.43
2023-03-19T06:04:34.186Z,89.92
2023-03-19T06:07:02.002Z,90.29
2023-03-19T06:09:31.322Z,90.33
2023-03-19T06:11:59.194Z,89.66
2023-03-19T06:14:27.466Z,89.27
2023-03-19T06:16:55.452Z,89.30
2023-03-19T06:19:23.977Z,88.91
2023-03-19T06:21:52.413Z,89.07
2023-03-19T06:24:20.407Z,89.25
2023-03-19T06:26:49.839Z,88.92
2023-03-19T06:29:17.738Z,88.79
2023-03-19T06:31:45.673Z,88.36
2023-03-19T06:34:13.676Z,88.93
2023-03-19T06:36:42.741Z,89.17
2023-03-19T06:39:10.732Z,89.02
2023-03-19T06:41:38.841Z,89.36
2023-03-19T06:44:08.310Z,88.74
2023-03-19T06:46:36.200Z,88.91
2023-03-19T06:49:04.349Z,88.45
2023-03-19T06:51:32.229Z,86.96
2023-03-19T06:54:00.183Z,86.21
2023-03-19T06:56:29.505Z,85.68
2023-03-19T06:58:57.698Z,85.05
2023-03-19T07:01:27.187Z,85.27
2023-03-19T07:03:55.415Z,83.95
2023-03-19T07:06:23.300Z,84.61
2023-03-19T07:08:51.277Z,83.86
2023-03-19T07:11:19.126Z,83.74
2023-03-19T07:13:47.120Z,82.67
2023-03-19T07:16:15.087Z,82.82
2023-03-19T07:18:44.326Z,82.01
2023-03-19T07:21:12.257Z,82.02
2023-03-19T07:23:40.330Z,81.05
2023-03-19T07:26:08.266Z,80.76
2023-03-19T07:28:36.168Z,80.19
2023-03-19T07:31:04.131Z,79.67
2023-03-19T07:33:32.103Z,79.08
2023-03-19T07:36:01.713Z,78.66
2023-03-19T07:38:29.709Z,77.38
2023-03-19T07:41:02.300Z,76.37
2023-03-19T07:43:31.029Z,76.25
2023-03-19T07:45:59.373Z,75.47
2023-03-19T07:48:27.296Z,75.21
2023-03-19T07:50:55.416Z,73.98
2023-03-19T07:53:24.675Z,73.18
2023-03-19T07:55:52.504Z,72.49
2023-03-19T07:58:20.507Z,71.07
2023-03-19T08:00:48.565Z,71.75
2023-03-19T08:03:16.604Z,71.50
2023-03-19T08:05:45.071Z,70.87
2023-03-19T08:08:12.900Z,70.11
2023-03-19T08:10:42.242Z,69.79
2023-03-19T08:13:10.294Z,68.89
2023-03-19T08:15:38.145Z,69.26
2023-03-19T08:18:06.347Z,69.26
2023-03-19T08:20:34.562Z,69.03
2023-03-19T08:23:02.768Z,68.54
2023-03-19T08:25:32.702Z,69.18
2023-03-19T08:28:02.280Z,69.29
2023-03-19T08:30:30.382Z,68.38
2023-03-19T08:32:58.643Z,68.04
2023-03-19T08:35:27.405Z,68.65
2023-03-19T08:37:55.755Z,67.84
2023-03-19T08:40:24.386Z,68.56
2023-03-19T08:42:52.597Z,68.19
2023-03-19T08:45:22.256Z,66.52
2023-03-19T08:47:50.603Z,66.07
2023-03-19T08:50:19.304Z,63.98
2023-03-19T08:52:47.180Z,56.52
2023-03-19T08:55:15.961Z,51.40
2023-03-19T08:57:43.995Z,47.09
2023-03-19T09:00:13.617Z,45.39
2023-03-19T09:02:42.839Z,43.48
2023-03-19T09:05:11.068Z,46.33
2023-03-19T09:07:39.010Z,46.52
2023-03-19T09:10:08.034Z,44.66
2023-03-19T09:12:36.197Z,45.80
2023-03-19T09:15:04.539Z,46.42
2023-03-19T09:17:32.354Z,43.75
2023-03-19T09:20:01.671Z,41.83
2023-03-19T09:22:29.712Z,40.88
2023-03-19T09:24:57.617Z,39.45
2023-03-19T09:27:25.524Z,40.12
2023-03-19T09:29:53.339Z,38.18
2023-03-19T09:32:21.692Z,39.22
2023-03-19T09:34:49.600Z,39.77
2023-03-19T09:37:18.862Z,39.99
2023-03-19T17:52:30.824Z,76.81
2023-03-19T17:54:58.823Z,76.70
2023-03-19T17:57:29.790Z,77.04
2023-03-19T18:00:02.731Z,77.22
2023-03-19T18:02:33.394Z,77.87
2023-03-19T18:05:01.335Z,78.28
2023-03-19T18:07:30.827Z,79.23
2023-03-19T18:09:58.771Z,80.00
2023-03-19T18:12:26.705Z,80.37
2023-03-19T18:14:54.895Z,80.54
2023-03-19T18:17:22.880Z,81.12
2023-03-19T18:19:52.304Z,81.11
2023-03-19T18:22:21.299Z,81.48
2023-03-19T18:24:50.514Z,81.82
2023-03-19T18:27:18.421Z,82.20
2023-03-19T18:29:46.304Z,82.09
2023-03-19T18:32:17.360Z,82.92
2023-03-19T18:34:45.414Z,82.82
2023-03-19T18:37:17.469Z,82.65
2023-03-19T18:39:45.643Z,83.25
2023-03-19T18:42:15.504Z,82.95
2023-03-19T18:44:44.276Z,83.79
2023-03-19T18:47:15.893Z,84.48
2023-03-19T18:49:44.844Z,84.33
2023-03-19T18:52:17.277Z,84.76
2023-03-19T18:54:46.591Z,84.48
2023-03-19T18:57:17.584Z,84.42
2023-03-19T18:59:45.671Z,84.80
2023-03-19T19:02:23.721Z,84.89
2023-03-19T19:04:51.568Z,85.31
2023-03-19T19:07:19.678Z,85.38
2023-03-19T19:09:47.575Z,85.91
2023-03-19T19:12:18.852Z,86.43
2023-03-19T19:14:47.107Z,86.53
2023-03-19T19:17:18.404Z,86.58
2023-03-19T19:19:46.453Z,87.02
2023-03-19T19:22:16.577Z,86.42
2023-03-19T19:24:44.628Z,85.98
2023-03-19T19:27:18.659Z,86.04
2023-03-19T19:29:47.449Z,85.60
2023-03-19T19:32:26.065Z,85.97
2023-03-19T19:34:54.674Z,85.58
2023-03-19T19:37:23.575Z,85.70
2023-03-19T19:39:52.183Z,84.91
2023-03-19T19:42:23.236Z,85.59
2023-03-19T19:44:53.723Z,84.25
2023-03-19T19:47:21.689Z,85.52
2023-03-19T19:49:49.744Z,85.97
2023-03-19T19:52:19.899Z,85.86
2023-03-19T19:54:48.322Z,85.71
2023-03-19T19:57:19.878Z,86.29
2023-03-19T19:59:50.025Z,85.98
2023-03-19T20:02:22.662Z,86.20
2023-03-19T20:04:50.949Z,86.71
2023-03-19T20:07:19.065Z,86.53
2023-03-19T20:09:47.711Z,86.55
2023-03-19T20:12:23.470Z,87.46
2023-03-19T20:14:53.590Z,87.47
2023-03-19T20:17:22.045Z,88.35
2023-03-19T20:19:50.446Z,87.61
2023-03-19T20:22:18.804Z,88.78
2023-03-19T20:24:50.297Z,89.37
2023-03-19T20:27:21.988Z,89.01
2023-03-19T20:29:50.737Z,89.44
2023-03-19T20:32:28.838Z,89.73
2023-03-19T20:34:56.794Z,89.88
2023-03-19T20:37:24.740Z,89.83
2023-03-19T20:39:52.616Z,89.93
2023-03-19T20:42:20.880Z,90.47
2023-03-19T20:44:48.896Z,90.09
2023-03-19T20:47:18.270Z,89.68
2023-03-19T20:49:47.776Z,89.67
2023-03-19T20:52:16.475Z,89.25
2023-03-19T20:54:44.853Z,89.80
2023-03-19T20:57:14.856Z,90.36
2023-03-19T20:59:45.810Z,90.09
2023-03-19T21:02:17.669Z,90.38
2023-03-19T21:04:47.693Z,91.26
2023-03-19T21:07:28.834Z,91.38
2023-03-19T21:09:57.960Z,90.50
2023-03-19T21:12:29.734Z,89.94
2023-03-19T21:14:58.170Z,89.62
2023-03-19T21:17:27.362Z,89.20
2023-03-19T21:19:57.159Z,89.90
2023-03-19T21:22:28.598Z,89.03
2023-03-19T21:25:04.290Z,88.98
2023-03-19T21:27:35.515Z,89.52
2023-03-19T21:30:05.588Z,90.69
2023-03-19T21:32:34.508Z,89.97
2023-03-19T21:35:03.829Z,89.90
2023-03-19T21:37:31.877Z,89.45
2023-03-19T21:39:59.771Z,88.76
2023-03-19T21:42:28.372Z,88.88
2023-03-19T21:45:00.447Z,89.06
2023-03-19T21:47:28.442Z,88.85
2023-03-19T21:49:56.493Z,88.22
2023-03-19T21:52:25.938Z,88.40
2023-03-19T21:54:53.835Z,88.01
2023-03-19T21:57:21.736Z,89.18
2023-03-19T21:59:49.595Z,89.65
2023-03-19T22:02:40.339Z,89.58
2023-03-19T22:05:20.185Z,89.07
2023-03-19T22:07:49.511Z,89.51
2023-03-19T22:10:17.892Z,89.48
2023-03-19T22:12:46.664Z,89.51
2023-03-19T22:15:25.106Z,89.09
2023-03-19T22:17:53.004Z,88.76
2023-03-19T22:20:23.719Z,88.87
2023-03-19T22:22:53.788Z,88.42
2023-03-19T22:25:23.043Z,87.85
2023-03-19T22:27:52.030Z,88.31
2023-03-19T22:30:24.540Z,87.65
2023-03-19T22:32:55.231Z,87.81
2023-03-19T22:35:23.153Z,87.39
2023-03-19T22:37:52.407Z,86.79
2023-03-19T22:40:20.612Z,88.18
2023-03-19T22:42:50.038Z,87.82
2023-03-19T22:45:27.607Z,88.26
2023-03-19T22:47:57.005Z,88.22
2023-03-19T22:50:27.850Z,87.83
2023-03-19T22:52:57.915Z,87.23
2023-03-19T22:55:26.068Z,87.24
2023-03-19T22:57:54.023Z,86.62
2023-03-19T23:00:23.869Z,87.18
2023-03-19T23:02:57.489Z,87.11
2023-03-19T23:05:33.393Z,87.34
2023-03-19T23:08:06.020Z,86.59
2023-03-19T23:10:35.930Z,86.23
2023-03-19T23:13:03.905Z,85.93
2023-03-19T23:15:33.030Z,84.83
2023-03-19T23:18:02.281Z,85.79
2023-03-19T23:20:33.878Z,85.65
2023-03-19T23:23:03.263Z,86.10
2023-03-19T23:25:31.446Z,85.68
2023-03-19T23:28:02.760Z,86.06
2023-03-19T23:30:33.575Z,85.55
2023-03-19T23:33:03.657Z,85.56
2023-03-19T23:35:33.051Z,85.09
2023-03-19T23:38:01.919Z,84.36
2023-03-19T23:40:34.385Z,85.45
2023-03-19T23:43:03.646Z,85.04
2023-03-19T23:45:37.890Z,85.01
2023-03-19T23:48:13.736Z,84.27
2023-03-19T23:50:42.114Z,84.05
2023-03-19T23:53:19.752Z,83.20
2023-03-19T23:55:51.041Z,84.14
2023-03-19T23:58:19.414Z,84.24
